sensor_id;sensor_type;location;lat;lon;timestamp;temperature;humidity
4795;DHT22;2411;47.060;15.064;2023-12-14T00:01:15;3.20;99.90
4795;DHT22;2411;47.060;15.064;2023-12-14T00:03:43;3.10;99.90
4795;DHT22;2411;47.060;15.064;2023-12-14T00:06:14;3.10;99.90
4795;DHT22;2411;47.060;15.064;2023-12-14T00:08:41;3.20;99.90
4795;DHT22;2411;47.060;15.064;2023-12-14T00:11:10;3.30;99.90
4795;DHT22;2411;47.060;15.064;2023-12-14T00:13:39;3.30;99.90
4795;DHT22;2411;47.060;15.064;2023-12-14T00:16:07;3.40;99.90
4795;DHT22;2411;47.060;15.064;2023-12-14T00:18:35;3.40;99.90
4795;DHT22;2411;47.060;15.064;2023-12-14T00:21:03;3.50;99.90
4795;DHT22;2411;47.060;15.064;2023-12-14T00:23:31;3.60;99.90
4795;DHT22;2411;47.060;15.064;2023-12-14T00:25:58;3.70;99.90
4795;DHT22;2411;47.060;15.064;2023-12-14T00:28:25;3.80;99.90
4795;DHT22;2411;47.060;15.064;2023-12-14T00:30:57;3.70;99.90
4795;DHT22;2411;47.060;15.064;2023-12-14T00:33:24;3.60;99.90
4795;DHT22;2411;47.060;15.064;2023-12-14T00:35:52;3.50;99.90
4795;DHT22;2411;47.060;15.064;2023-12-14T00:38:19;3.50;99.90
4795;DHT22;2411;47.060;15.064;2023-12-14T00:40:46;3.50;99.90
4795;DHT22;2411;47.060;15.064;2023-12-14T00:43:14;3.60;99.90
4795;DHT22;2411;47.060;15.064;2023-12-14T00:45:41;3.60;99.90
4795;DHT22;2411;47.060;15.064;2023-12-14T00:48:09;3.70;99.90
4795;DHT22;2411;47.060;15.064;2023-12-14T00:50:36;3.70;99.90
4795;DHT22;2411;47.060;15.064;2023-12-14T00:53:03;3.60;99.90
4795;DHT22;2411;47.060;15.064;2023-12-14T00:55:30;3.40;99.90
4795;DHT22;2411;47.060;15.064;2023-12-14T00:57:58;3.30;99.90
4795;DHT22;2411;47.060;15.064;2023-12-14T01:00:25;3.20;99.90
4795;DHT22;2411;47.060;15.064;2023-12-14T01:02:53;3.20;99.90
4795;DHT22;2411;47.060;15.064;2023-12-14T01:05:20;3.20;99.90
4795;DHT22;2411;47.060;15.064;2023-12-14T01:07:47;3.30;99.90
4795;DHT22;2411;47.060;15.064;2023-12-14T01:10:15;3.30;99.90
4795;DHT22;2411;47.060;15.064;2023-12-14T01:12:42;3.20;1.00
4795;DHT22;2411;47.060;15.064;2023-12-14T01:15:10;3.20;1.00
4795;DHT22;2411;47.060;15.064;2023-12-14T01:17:37;3.20;1.00
4795;DHT22;2411;47.060;15.064;2023-12-14T01:20:08;3.10;99.90
4795;DHT22;2411;47.060;15.064;2023-12-14T01:22:36;3.10;99.90
4795;DHT22;2411;47.060;15.064;2023-12-14T01:25:04;3.20;1.00
4795;DHT22;2411;47.060;15.064;2023-12-14T01:27:31;3.30;1.00
4795;DHT22;2411;47.060;15.064;2023-12-14T01:29:59;3.40;1.00
4795;DHT22;2411;47.060;15.064;2023-12-14T01:32:26;3.50;1.00
4795;DHT22;2411;47.060;15.064;2023-12-14T01:34:53;3.60;1.00
4795;DHT22;2411;47.060;15.064;2023-12-14T01:37:21;3.60;1.00
4795;DHT22;2411;47.060;15.064;2023-12-14T01:39:48;3.80;1.00
4795;DHT22;2411;47.060;15.064;2023-12-14T01:42:15;3.80;1.00
4795;DHT22;2411;47.060;15.064;2023-12-14T01:44:43;3.90;1.00
4795;DHT22;2411;47.060;15.064;2023-12-14T01:47:10;3.90;1.00
4795;DHT22;2411;47.060;15.064;2023-12-14T01:49:38;3.90;1.00
4795;DHT22;2411;47.060;15.064;2023-12-14T01:52:06;3.80;1.00
4795;DHT22;2411;47.060;15.064;2023-12-14T01:54:33;3.60;99.90
4795;DHT22;2411;47.060;15.064;2023-12-14T01:57:01;3.70;99.90
4795;DHT22;2411;47.060;15.064;2023-12-14T01:59:28;3.60;99.90
4795;DHT22;2411;47.060;15.064;2023-12-14T02:01:56;3.50;99.90
4795;DHT22;2411;47.060;15.064;2023-12-14T02:04:24;3.50;99.90
4795;DHT22;2411;47.060;15.064;2023-12-14T02:06:52;3.40;99.90
4795;DHT22;2411;47.060;15.064;2023-12-14T02:09:20;3.40;99.90
4795;DHT22;2411;47.060;15.064;2023-12-14T02:11:47;3.50;99.90
4795;DHT22;2411;47.060;15.064;2023-12-14T02:14:15;3.50;99.90
4795;DHT22;2411;47.060;15.064;2023-12-14T02:16:42;3.50;99.90
4795;DHT22;2411;47.060;15.064;2023-12-14T02:19:09;3.40;99.90
4795;DHT22;2411;47.060;15.064;2023-12-14T02:21:37;3.40;99.90
4795;DHT22;2411;47.060;15.064;2023-12-14T02:24:04;3.50;99.90
4795;DHT22;2411;47.060;15.064;2023-12-14T02:26:31;3.60;99.90
4795;DHT22;2411;47.060;15.064;2023-12-14T02:28:59;3.50;99.90
4795;DHT22;2411;47.060;15.064;2023-12-14T02:31:29;3.60;99.90
4795;DHT22;2411;47.060;15.064;2023-12-14T02:33:56;3.60;99.90
4795;DHT22;2411;47.060;15.064;2023-12-14T02:36:24;3.60;99.90
4795;DHT22;2411;47.060;15.064;2023-12-14T02:38:51;3.60;99.90
4795;DHT22;2411;47.060;15.064;2023-12-14T02:41:19;3.60;99.90
4795;DHT22;2411;47.060;15.064;2023-12-14T02:43:46;3.50;99.90
4795;DHT22;2411;47.060;15.064;2023-12-14T02:46:13;3.50;99.90
4795;DHT22;2411;47.060;15.064;2023-12-14T02:48:42;3.40;99.90
4795;DHT22;2411;47.060;15.064;2023-12-14T02:51:14;3.20;99.90
4795;DHT22;2411;47.060;15.064;2023-12-14T02:53:42;3.10;99.90
4795;DHT22;2411;47.060;15.064;2023-12-14T02:56:10;3.20;99.90
4795;DHT22;2411;47.060;15.064;2023-12-14T02:58:38;3.30;99.90
4795;DHT22;2411;47.060;15.064;2023-12-14T03:01:05;3.30;99.90
4795;DHT22;2411;47.060;15.064;2023-12-14T03:03:33;3.30;99.90
4795;DHT22;2411;47.060;15.064;2023-12-14T03:06:00;3.40;99.90
4795;DHT22;2411;47.060;15.064;2023-12-14T03:08:28;3.40;99.90
4795;DHT22;2411;47.060;15.064;2023-12-14T03:10:55;3.40;99.90
4795;DHT22;2411;47.060;15.064;2023-12-14T03:13:23;3.40;99.90
4795;DHT22;2411;47.060;15.064;2023-12-14T03:15:50;3.50;99.90
4795;DHT22;2411;47.060;15.064;2023-12-14T03:18:17;3.40;99.90
4795;DHT22;2411;47.060;15.064;2023-12-14T03:20:45;3.20;99.90
4795;DHT22;2411;47.060;15.064;2023-12-14T03:23:12;3.30;99.90
4795;DHT22;2411;47.060;15.064;2023-12-14T03:25:40;3.20;99.90
4795;DHT22;2411;47.060;15.064;2023-12-14T03:28:07;3.20;99.90
4795;DHT22;2411;47.060;15.064;2023-12-14T03:30:35;3.30;99.90
4795;DHT22;2411;47.060;15.064;2023-12-14T03:33:02;3.40;99.90
4795;DHT22;2411;47.060;15.064;2023-12-14T03:35:32;3.40;99.90
4795;DHT22;2411;47.060;15.064;2023-12-14T03:37:59;3.40;1.00
4795;DHT22;2411;47.060;15.064;2023-12-14T03:40:27;3.40;99.90
4795;DHT22;2411;47.060;15.064;2023-12-14T03:42:54;3.40;99.90
4795;DHT22;2411;47.060;15.064;2023-12-14T03:45:21;3.50;99.90
4795;DHT22;2411;47.060;15.064;2023-12-14T03:47:48;3.50;99.90
4795;DHT22;2411;47.060;15.064;2023-12-14T03:50:16;3.60;99.90
4795;DHT22;2411;47.060;15.064;2023-12-14T03:52:43;3.60;99.90
4795;DHT22;2411;47.060;15.064;2023-12-14T03:55:11;3.70;99.90
4795;DHT22;2411;47.060;15.064;2023-12-14T03:57:38;3.80;1.00
4795;DHT22;2411;47.060;15.064;2023-12-14T04:00:16;3.80;99.90
4795;DHT22;2411;47.060;15.064;2023-12-14T04:02:44;3.90;99.90
4795;DHT22;2411;47.060;15.064;2023-12-14T04:05:11;3.80;99.90
4795;DHT22;2411;47.060;15.064;2023-12-14T04:07:39;3.70;99.90
4795;DHT22;2411;47.060;15.064;2023-12-14T04:10:09;3.60;99.90
4795;DHT22;2411;47.060;15.064;2023-12-14T04:12:37;3.60;99.90
4795;DHT22;2411;47.060;15.064;2023-12-14T04:15:06;3.60;99.90
4795;DHT22;2411;47.060;15.064;2023-12-14T04:17:34;3.50;99.90
4795;DHT22;2411;47.060;15.064;2023-12-14T04:20:02;3.40;99.90
4795;DHT22;2411;47.060;15.064;2023-12-14T04:22:30;3.20;99.90
4795;DHT22;2411;47.060;15.064;2023-12-14T04:24:57;3.20;99.90
4795;DHT22;2411;47.060;15.064;2023-12-14T04:27:24;3.10;99.90
4795;DHT22;2411;47.060;15.064;2023-12-14T04:29:55;3.10;99.90
4795;DHT22;2411;47.060;15.064;2023-12-14T04:32:23;3.10;99.90
4795;DHT22;2411;47.060;15.064;2023-12-14T04:34:50;3.20;99.90
4795;DHT22;2411;47.060;15.064;2023-12-14T04:37:18;3.20;99.90
4795;DHT22;2411;47.060;15.064;2023-12-14T04:39:45;3.20;99.90
4795;DHT22;2411;47.060;15.064;2023-12-14T04:42:12;3.10;99.90
4795;DHT22;2411;47.060;15.064;2023-12-14T04:44:40;3.20;99.90
4795;DHT22;2411;47.060;15.064;2023-12-14T04:47:07;3.30;99.90
4795;DHT22;2411;47.060;15.064;2023-12-14T04:49:35;3.20;99.90
4795;DHT22;2411;47.060;15.064;2023-12-14T04:52:03;3.30;99.90
4795;DHT22;2411;47.060;15.064;2023-12-14T04:54:31;3.30;99.90
4795;DHT22;2411;47.060;15.064;2023-12-14T04:56:58;3.30;99.90
4795;DHT22;2411;47.060;15.064;2023-12-14T04:59:26;3.40;99.90
4795;DHT22;2411;47.060;15.064;2023-12-14T05:01:53;3.40;99.90
4795;DHT22;2411;47.060;15.064;2023-12-14T05:04:21;3.50;99.90
4795;DHT22;2411;47.060;15.064;2023-12-14T05:06:48;3.60;99.90
4795;DHT22;2411;47.060;15.064;2023-12-14T05:09:15;3.60;99.90
4795;DHT22;2411;47.060;15.064;2023-12-14T05:11:43;3.60;99.90
4795;DHT22;2411;47.060;15.064;2023-12-14T05:14:10;3.50;99.90
4795;DHT22;2411;47.060;15.064;2023-12-14T05:16:38;3.50;99.90
4795;DHT22;2411;47.060;15.064;2023-12-14T05:19:06;3.50;99.90
4795;DHT22;2411;47.060;15.064;2023-12-14T05:21:34;3.50;99.90
4795;DHT22;2411;47.060;15.064;2023-12-14T05:24:01;3.30;99.90
4795;DHT22;2411;47.060;15.064;2023-12-14T05:26:28;3.40;99.90
4795;DHT22;2411;47.060;15.064;2023-12-14T05:28:56;3.40;99.90
4795;DHT22;2411;47.060;15.064;2023-12-14T05:31:23;3.30;99.90
4795;DHT22;2411;47.060;15.064;2023-12-14T05:33:50;3.30;99.90
4795;DHT22;2411;47.060;15.064;2023-12-14T05:36:18;3.40;99.90
4795;DHT22;2411;47.060;15.064;2023-12-14T05:38:46;3.40;99.90
4795;DHT22;2411;47.060;15.064;2023-12-14T05:41:13;3.40;99.90
4795;DHT22;2411;47.060;15.064;2023-12-14T05:43:40;3.50;99.90
4795;DHT22;2411;47.060;15.064;2023-12-14T05:46:08;3.40;99.90
4795;DHT22;2411;47.060;15.064;2023-12-14T05:48:37;3.30;99.90
4795;DHT22;2411;47.060;15.064;2023-12-14T05:51:05;3.20;99.90
4795;DHT22;2411;47.060;15.064;2023-12-14T05:53:32;3.30;99.90
4795;DHT22;2411;47.060;15.064;2023-12-14T05:56:03;3.30;99.90
4795;DHT22;2411;47.060;15.064;2023-12-14T05:58:31;3.30;99.90
4795;DHT22;2411;47.060;15.064;2023-12-14T06:00:58;3.10;99.90
4795;DHT22;2411;47.060;15.064;2023-12-14T06:03:26;3.10;99.90
4795;DHT22;2411;47.060;15.064;2023-12-14T06:05:53;3.10;99.90
4795;DHT22;2411;47.060;15.064;2023-12-14T06:08:20;3.00;99.90
4795;DHT22;2411;47.060;15.064;2023-12-14T06:10:48;3.10;99.90
4795;DHT22;2411;47.060;15.064;2023-12-14T06:13:15;3.10;99.90
4795;DHT22;2411;47.060;15.064;2023-12-14T06:15:42;3.20;99.90
4795;DHT22;2411;47.060;15.064;2023-12-14T06:18:10;3.20;99.90
4795;DHT22;2411;47.060;15.064;2023-12-14T06:20:37;3.30;99.90
4795;DHT22;2411;47.060;15.064;2023-12-14T06:23:04;3.40;99.90
4795;DHT22;2411;47.060;15.064;2023-12-14T06:25:32;3.40;99.90
4795;DHT22;2411;47.060;15.064;2023-12-14T06:27:59;3.40;99.90
4795;DHT22;2411;47.060;15.064;2023-12-14T06:30:26;3.40;99.90
4795;DHT22;2411;47.060;15.064;2023-12-14T06:32:54;4.00;99.90
4795;DHT22;2411;47.060;15.064;2023-12-14T06:35:24;3.40;99.90
4795;DHT22;2411;47.060;15.064;2023-12-14T06:37:51;3.20;99.90
4795;DHT22;2411;47.060;15.064;2023-12-14T06:40:19;3.10;99.90
4795;DHT22;2411;47.060;15.064;2023-12-14T06:42:46;3.10;99.90
4795;DHT22;2411;47.060;15.064;2023-12-14T06:45:19;3.10;99.90
4795;DHT22;2411;47.060;15.064;2023-12-14T06:47:47;3.10;99.90
4795;DHT22;2411;47.060;15.064;2023-12-14T06:50:14;3.00;99.90
4795;DHT22;2411;47.060;15.064;2023-12-14T06:52:42;3.10;99.90
4795;DHT22;2411;47.060;15.064;2023-12-14T06:55:09;3.10;1.00
4795;DHT22;2411;47.060;15.064;2023-12-14T06:57:36;3.10;1.00
4795;DHT22;2411;47.060;15.064;2023-12-14T07:00:04;3.10;1.00
4795;DHT22;2411;47.060;15.064;2023-12-14T07:02:32;3.10;1.00
4795;DHT22;2411;47.060;15.064;2023-12-14T07:05:00;3.20;1.00
4795;DHT22;2411;47.060;15.064;2023-12-14T07:07:28;3.20;1.00
4795;DHT22;2411;47.060;15.064;2023-12-14T07:09:55;3.30;1.00
4795;DHT22;2411;47.060;15.064;2023-12-14T07:12:22;3.20;1.00
4795;DHT22;2411;47.060;15.064;2023-12-14T07:14:50;3.10;99.90
4795;DHT22;2411;47.060;15.064;2023-12-14T07:17:17;3.10;99.90
4795;DHT22;2411;47.060;15.064;2023-12-14T07:19:44;3.10;99.90
4795;DHT22;2411;47.060;15.064;2023-12-14T07:22:12;3.10;99.90
4795;DHT22;2411;47.060;15.064;2023-12-14T07:24:39;3.00;99.90
4795;DHT22;2411;47.060;15.064;2023-12-14T07:27:18;3.00;99.90
4795;DHT22;2411;47.060;15.064;2023-12-14T07:29:46;3.00;99.90
4795;DHT22;2411;47.060;15.064;2023-12-14T07:32:13;3.10;99.90
4795;DHT22;2411;47.060;15.064;2023-12-14T07:34:40;3.20;99.90
4795;DHT22;2411;47.060;15.064;2023-12-14T07:37:08;3.30;1.00
4795;DHT22;2411;47.060;15.064;2023-12-14T07:39:35;3.20;1.00
4795;DHT22;2411;47.060;15.064;2023-12-14T07:42:03;3.20;1.00
4795;DHT22;2411;47.060;15.064;2023-12-14T07:44:30;3.30;1.00
4795;DHT22;2411;47.060;15.064;2023-12-14T07:47:01;3.30;1.00
4795;DHT22;2411;47.060;15.064;2023-12-14T07:49:29;3.40;1.00
4795;DHT22;2411;47.060;15.064;2023-12-14T07:51:57;3.40;1.00
4795;DHT22;2411;47.060;15.064;2023-12-14T07:54:24;3.40;1.00
4795;DHT22;2411;47.060;15.064;2023-12-14T07:56:54;3.50;1.00
4795;DHT22;2411;47.060;15.064;2023-12-14T07:59:21;3.60;1.00
4795;DHT22;2411;47.060;15.064;2023-12-14T08:01:49;3.70;99.90
4795;DHT22;2411;47.060;15.064;2023-12-14T08:04:16;3.70;99.90
4795;DHT22;2411;47.060;15.064;2023-12-14T08:06:43;3.70;99.90
4795;DHT22;2411;47.060;15.064;2023-12-14T08:09:11;3.70;99.90
4795;DHT22;2411;47.060;15.064;2023-12-14T08:11:38;3.80;99.90
4795;DHT22;2411;47.060;15.064;2023-12-14T08:14:05;3.70;99.90
4795;DHT22;2411;47.060;15.064;2023-12-14T08:16:33;3.70;99.90
4795;DHT22;2411;47.060;15.064;2023-12-14T08:19:00;3.70;99.90
4795;DHT22;2411;47.060;15.064;2023-12-14T08:21:28;3.70;99.90
4795;DHT22;2411;47.060;15.064;2023-12-14T08:23:55;3.70;99.90
4795;DHT22;2411;47.060;15.064;2023-12-14T08:26:23;3.60;99.90
4795;DHT22;2411;47.060;15.064;2023-12-14T08:28:50;3.60;99.90
4795;DHT22;2411;47.060;15.064;2023-12-14T08:31:18;3.70;99.90
4795;DHT22;2411;47.060;15.064;2023-12-14T08:33:45;3.60;99.90
4795;DHT22;2411;47.060;15.064;2023-12-14T08:36:16;3.70;99.90
4795;DHT22;2411;47.060;15.064;2023-12-14T08:38:44;3.70;99.90
4795;DHT22;2411;47.060;15.064;2023-12-14T08:41:15;4.00;99.90
4795;DHT22;2411;47.060;15.064;2023-12-14T08:43:43;4.00;99.90
4795;DHT22;2411;47.060;15.064;2023-12-14T08:46:10;3.90;99.90
4795;DHT22;2411;47.060;15.064;2023-12-14T08:48:38;4.00;99.90
4795;DHT22;2411;47.060;15.064;2023-12-14T08:51:06;4.10;99.90
4795;DHT22;2411;47.060;15.064;2023-12-14T08:53:33;4.30;99.90
4795;DHT22;2411;47.060;15.064;2023-12-14T08:56:00;4.40;99.90
4795;DHT22;2411;47.060;15.064;2023-12-14T08:58:29;4.50;99.90
4795;DHT22;2411;47.060;15.064;2023-12-14T09:00:57;4.70;99.90
4795;DHT22;2411;47.060;15.064;2023-12-14T09:03:24;4.80;99.90
4795;DHT22;2411;47.060;15.064;2023-12-14T09:05:53;4.90;99.90
4795;DHT22;2411;47.060;15.064;2023-12-14T09:08:21;4.90;99.90
4795;DHT22;2411;47.060;15.064;2023-12-14T09:10:48;5.10;93.50
4795;DHT22;2411;47.060;15.064;2023-12-14T09:13:16;5.20;66.60
4795;DHT22;2411;47.060;15.064;2023-12-14T09:15:43;5.20;59.20
4795;DHT22;2411;47.060;15.064;2023-12-14T09:18:11;5.20;82.90
4795;DHT22;2411;47.060;15.064;2023-12-14T09:20:38;5.10;39.20
4795;DHT22;2411;47.060;15.064;2023-12-14T09:23:07;4.90;75.00
4795;DHT22;2411;47.060;15.064;2023-12-14T09:25:35;5.00;56.10
4795;DHT22;2411;47.060;15.064;2023-12-14T09:28:03;5.00;60.70
4795;DHT22;2411;47.060;15.064;2023-12-14T09:30:30;5.20;49.30
4795;DHT22;2411;47.060;15.064;2023-12-14T09:32:58;5.30;78.50
4795;DHT22;2411;47.060;15.064;2023-12-14T09:35:25;5.40;61.60
4795;DHT22;2411;47.060;15.064;2023-12-14T09:37:53;5.60;46.10
4795;DHT22;2411;47.060;15.064;2023-12-14T09:40:20;5.60;10.00
4795;DHT22;2411;47.060;15.064;2023-12-14T09:42:49;5.70;1.00
4795;DHT22;2411;47.060;15.064;2023-12-14T09:45:17;5.80;1.00
4795;DHT22;2411;47.060;15.064;2023-12-14T09:47:46;5.90;1.00
4795;DHT22;2411;47.060;15.064;2023-12-14T09:50:14;6.00;1.00
4795;DHT22;2411;47.060;15.064;2023-12-14T09:52:42;6.10;1.00
4795;DHT22;2411;47.060;15.064;2023-12-14T09:55:12;6.10;1.00
4795;DHT22;2411;47.060;15.064;2023-12-14T09:57:40;6.20;1.00
4795;DHT22;2411;47.060;15.064;2023-12-14T10:00:10;6.30;1.00
4795;DHT22;2411;47.060;15.064;2023-12-14T10:02:38;6.30;1.00
4795;DHT22;2411;47.060;15.064;2023-12-14T10:05:09;6.20;1.00
4795;DHT22;2411;47.060;15.064;2023-12-14T10:07:46;6.30;1.00
4795;DHT22;2411;47.060;15.064;2023-12-14T10:10:14;6.30;1.00
4795;DHT22;2411;47.060;15.064;2023-12-14T10:12:54;6.30;1.00
4795;DHT22;2411;47.060;15.064;2023-12-14T10:15:22;6.70;1.00
4795;DHT22;2411;47.060;15.064;2023-12-14T10:17:52;6.70;1.00
4795;DHT22;2411;47.060;15.064;2023-12-14T10:20:22;6.90;1.00
4795;DHT22;2411;47.060;15.064;2023-12-14T10:22:50;7.00;1.00
4795;DHT22;2411;47.060;15.064;2023-12-14T10:25:18;7.10;1.00
4795;DHT22;2411;47.060;15.064;2023-12-14T10:27:47;7.10;1.00
4795;DHT22;2411;47.060;15.064;2023-12-14T10:30:15;7.20;1.00
4795;DHT22;2411;47.060;15.064;2023-12-14T10:32:42;7.30;1.00
4795;DHT22;2411;47.060;15.064;2023-12-14T10:35:11;7.30;1.00
4795;DHT22;2411;47.060;15.064;2023-12-14T10:37:39;7.30;1.00
4795;DHT22;2411;47.060;15.064;2023-12-14T10:40:09;7.30;1.00
4795;DHT22;2411;47.060;15.064;2023-12-14T10:42:39;7.30;1.00
4795;DHT22;2411;47.060;15.064;2023-12-14T10:45:08;7.30;1.00
4795;DHT22;2411;47.060;15.064;2023-12-14T10:47:46;7.30;1.00
4795;DHT22;2411;47.060;15.064;2023-12-14T10:50:15;7.30;1.00
4795;DHT22;2411;47.060;15.064;2023-12-14T10:52:44;7.40;1.00
4795;DHT22;2411;47.060;15.064;2023-12-14T10:57:52;7.60;1.00
4795;DHT22;2411;47.060;15.064;2023-12-14T11:00:20;7.70;1.00
4795;DHT22;2411;47.060;15.064;2023-12-14T11:02:48;7.80;1.00
4795;DHT22;2411;47.060;15.064;2023-12-14T11:05:16;7.80;1.00
4795;DHT22;2411;47.060;15.064;2023-12-14T11:07:50;7.80;1.00
4795;DHT22;2411;47.060;15.064;2023-12-14T11:10:40;7.80;1.00
4795;DHT22;2411;47.060;15.064;2023-12-14T11:13:10;7.90;1.00
4795;DHT22;2411;47.060;15.064;2023-12-14T11:15:40;7.90;1.00
4795;DHT22;2411;47.060;15.064;2023-12-14T11:23:13;8.00;1.00
4795;DHT22;2411;47.060;15.064;2023-12-14T11:25:41;7.90;1.00
4795;DHT22;2411;47.060;15.064;2023-12-14T11:28:13;7.90;1.00
4795;DHT22;2411;47.060;15.064;2023-12-14T11:30:43;8.10;1.00
4795;DHT22;2411;47.060;15.064;2023-12-14T11:33:22;8.00;1.00
4795;DHT22;2411;47.060;15.064;2023-12-14T11:35:51;8.00;1.00
4795;DHT22;2411;47.060;15.064;2023-12-14T11:38:22;8.00;1.00
4795;DHT22;2411;47.060;15.064;2023-12-14T11:40:51;8.00;1.00
4795;DHT22;2411;47.060;15.064;2023-12-14T11:43:19;7.90;1.00
4795;DHT22;2411;47.060;15.064;2023-12-14T11:45:51;7.90;1.00
4795;DHT22;2411;47.060;15.064;2023-12-14T11:48:18;7.90;1.00
4795;DHT22;2411;47.060;15.064;2023-12-14T11:50:48;7.90;1.00
4795;DHT22;2411;47.060;15.064;2023-12-14T11:53:15;8.00;1.00
4795;DHT22;2411;47.060;15.064;2023-12-14T11:55:43;8.00;1.00
4795;DHT22;2411;47.060;15.064;2023-12-14T11:58:12;8.00;1.00
4795;DHT22;2411;47.060;15.064;2023-12-14T12:00:43;8.10;1.00
4795;DHT22;2411;47.060;15.064;2023-12-14T12:03:18;8.00;1.00
4795;DHT22;2411;47.060;15.064;2023-12-14T12:05:50;8.00;1.00
4795;DHT22;2411;47.060;15.064;2023-12-14T12:08:20;8.00;1.00
4795;DHT22;2411;47.060;15.064;2023-12-14T12:10:49;8.00;1.00
4795;DHT22;2411;47.060;15.064;2023-12-14T12:13:19;8.00;1.00
4795;DHT22;2411;47.060;15.064;2023-12-14T12:15:47;7.90;1.00
4795;DHT22;2411;47.060;15.064;2023-12-14T12:18:16;7.90;1.00
4795;DHT22;2411;47.060;15.064;2023-12-14T12:20:44;7.90;1.00
4795;DHT22;2411;47.060;15.064;2023-12-14T12:23:12;7.90;1.00
4795;DHT22;2411;47.060;15.064;2023-12-14T12:25:39;8.00;1.00
4795;DHT22;2411;47.060;15.064;2023-12-14T12:28:07;8.10;1.00
4795;DHT22;2411;47.060;15.064;2023-12-14T12:30:34;8.20;1.00
4795;DHT22;2411;47.060;15.064;2023-12-14T12:33:07;8.30;1.00
4795;DHT22;2411;47.060;15.064;2023-12-14T12:35:34;8.40;1.00
4795;DHT22;2411;47.060;15.064;2023-12-14T12:38:02;8.40;1.00
4795;DHT22;2411;47.060;15.064;2023-12-14T12:40:30;8.40;1.00
4795;DHT22;2411;47.060;15.064;2023-12-14T12:42:59;8.40;1.00
4795;DHT22;2411;47.060;15.064;2023-12-14T12:45:26;8.30;1.00
4795;DHT22;2411;47.060;15.064;2023-12-14T12:47:55;8.40;1.00
4795;DHT22;2411;47.060;15.064;2023-12-14T12:50:23;8.30;1.00
4795;DHT22;2411;47.060;15.064;2023-12-14T12:52:51;8.20;1.00
4795;DHT22;2411;47.060;15.064;2023-12-14T12:55:19;8.30;1.00
4795;DHT22;2411;47.060;15.064;2023-12-14T12:57:47;8.30;1.00
4795;DHT22;2411;47.060;15.064;2023-12-14T13:00:15;8.30;1.00
4795;DHT22;2411;47.060;15.064;2023-12-14T13:02:44;8.30;1.00
4795;DHT22;2411;47.060;15.064;2023-12-14T13:05:13;8.30;1.00
4795;DHT22;2411;47.060;15.064;2023-12-14T13:07:45;8.40;1.00
4795;DHT22;2411;47.060;15.064;2023-12-14T13:10:13;8.40;1.00
4795;DHT22;2411;47.060;15.064;2023-12-14T13:12:57;8.40;1.00
4795;DHT22;2411;47.060;15.064;2023-12-14T13:15:25;8.40;1.00
4795;DHT22;2411;47.060;15.064;2023-12-14T13:17:54;8.50;1.00
4795;DHT22;2411;47.060;15.064;2023-12-14T13:20:22;8.40;1.00
4795;DHT22;2411;47.060;15.064;2023-12-14T13:22:49;8.50;1.00
4795;DHT22;2411;47.060;15.064;2023-12-14T13:25:17;8.40;1.00
4795;DHT22;2411;47.060;15.064;2023-12-14T13:27:44;8.70;1.00
4795;DHT22;2411;47.060;15.064;2023-12-14T13:30:12;8.50;1.00
4795;DHT22;2411;47.060;15.064;2023-12-14T13:32:45;8.40;1.00
4795;DHT22;2411;47.060;15.064;2023-12-14T13:35:13;8.30;1.00
4795;DHT22;2411;47.060;15.064;2023-12-14T13:37:41;8.20;1.00
4795;DHT22;2411;47.060;15.064;2023-12-14T13:40:09;8.00;1.00
4795;DHT22;2411;47.060;15.064;2023-12-14T13:42:41;7.90;1.00
4795;DHT22;2411;47.060;15.064;2023-12-14T13:45:28;7.70;1.00
4795;DHT22;2411;47.060;15.064;2023-12-14T13:47:57;7.70;1.00
4795;DHT22;2411;47.060;15.064;2023-12-14T13:50:26;7.70;1.00
4795;DHT22;2411;47.060;15.064;2023-12-14T13:52:55;7.70;1.00
4795;DHT22;2411;47.060;15.064;2023-12-14T13:55:23;7.70;1.00
4795;DHT22;2411;47.060;15.064;2023-12-14T13:57:51;7.60;1.00
4795;DHT22;2411;47.060;15.064;2023-12-14T14:00:18;7.70;1.00
4795;DHT22;2411;47.060;15.064;2023-12-14T14:02:46;7.80;1.00
4795;DHT22;2411;47.060;15.064;2023-12-14T14:05:13;7.70;1.00
4795;DHT22;2411;47.060;15.064;2023-12-14T14:07:41;7.70;1.00
4795;DHT22;2411;47.060;15.064;2023-12-14T14:10:09;7.60;1.00
4795;DHT22;2411;47.060;15.064;2023-12-14T14:12:37;7.60;1.00
4795;DHT22;2411;47.060;15.064;2023-12-14T14:15:05;7.50;1.00
4795;DHT22;2411;47.060;15.064;2023-12-14T14:17:33;7.40;1.00
4795;DHT22;2411;47.060;15.064;2023-12-14T14:20:01;7.30;1.00
4795;DHT22;2411;47.060;15.064;2023-12-14T14:22:28;7.10;1.00
4795;DHT22;2411;47.060;15.064;2023-12-14T14:24:56;7.10;1.00
4795;DHT22;2411;47.060;15.064;2023-12-14T14:27:24;7.00;1.00
4795;DHT22;2411;47.060;15.064;2023-12-14T14:29:51;7.00;1.00
4795;DHT22;2411;47.060;15.064;2023-12-14T14:32:22;6.90;1.00
4795;DHT22;2411;47.060;15.064;2023-12-14T14:34:50;6.80;1.00
4795;DHT22;2411;47.060;15.064;2023-12-14T14:37:17;6.70;1.00
4795;DHT22;2411;47.060;15.064;2023-12-14T14:39:45;6.60;1.00
4795;DHT22;2411;47.060;15.064;2023-12-14T14:42:12;6.60;1.00
4795;DHT22;2411;47.060;15.064;2023-12-14T14:44:42;6.50;1.00
4795;DHT22;2411;47.060;15.064;2023-12-14T14:47:09;6.50;1.00
4795;DHT22;2411;47.060;15.064;2023-12-14T14:49:37;6.40;1.00
4795;DHT22;2411;47.060;15.064;2023-12-14T14:52:04;6.30;1.00
4795;DHT22;2411;47.060;15.064;2023-12-14T14:54:31;6.30;1.00
4795;DHT22;2411;47.060;15.064;2023-12-14T14:56:59;6.30;1.00
4795;DHT22;2411;47.060;15.064;2023-12-14T14:59:26;6.20;1.00
4795;DHT22;2411;47.060;15.064;2023-12-14T15:01:54;6.20;1.00
4795;DHT22;2411;47.060;15.064;2023-12-14T15:04:23;6.10;1.00
4795;DHT22;2411;47.060;15.064;2023-12-14T15:06:50;6.00;1.00
4795;DHT22;2411;47.060;15.064;2023-12-14T15:09:17;5.90;1.00
4795;DHT22;2411;47.060;15.064;2023-12-14T15:11:45;6.00;1.00
4795;DHT22;2411;47.060;15.064;2023-12-14T15:14:12;6.00;1.00
4795;DHT22;2411;47.060;15.064;2023-12-14T15:16:40;5.90;1.00
4795;DHT22;2411;47.060;15.064;2023-12-14T15:19:07;5.90;1.00
4795;DHT22;2411;47.060;15.064;2023-12-14T15:21:35;5.80;1.00
4795;DHT22;2411;47.060;15.064;2023-12-14T15:24:02;5.70;1.00
4795;DHT22;2411;47.060;15.064;2023-12-14T15:26:30;5.80;1.00
4795;DHT22;2411;47.060;15.064;2023-12-14T15:28:59;5.70;1.00
4795;DHT22;2411;47.060;15.064;2023-12-14T15:31:27;5.70;1.00
4795;DHT22;2411;47.060;15.064;2023-12-14T15:33:54;5.60;1.00
4795;DHT22;2411;47.060;15.064;2023-12-14T15:36:22;5.60;1.00
4795;DHT22;2411;47.060;15.064;2023-12-14T15:38:49;5.40;1.00
4795;DHT22;2411;47.060;15.064;2023-12-14T15:41:16;5.40;1.00
4795;DHT22;2411;47.060;15.064;2023-12-14T15:43:44;5.40;1.00
4795;DHT22;2411;47.060;15.064;2023-12-14T15:46:11;5.40;1.00
4795;DHT22;2411;47.060;15.064;2023-12-14T15:48:38;5.40;1.00
4795;DHT22;2411;47.060;15.064;2023-12-14T15:51:07;5.40;1.00
4795;DHT22;2411;47.060;15.064;2023-12-14T15:53:36;5.30;1.00
4795;DHT22;2411;47.060;15.064;2023-12-14T15:56:04;5.20;1.00
4795;DHT22;2411;47.060;15.064;2023-12-14T15:58:32;5.20;1.00
4795;DHT22;2411;47.060;15.064;2023-12-14T16:00:59;5.10;1.00
4795;DHT22;2411;47.060;15.064;2023-12-14T16:03:27;5.00;1.00
4795;DHT22;2411;47.060;15.064;2023-12-14T16:05:55;4.90;1.00
4795;DHT22;2411;47.060;15.064;2023-12-14T16:08:22;4.80;1.00
4795;DHT22;2411;47.060;15.064;2023-12-14T16:10:49;4.90;1.00
4795;DHT22;2411;47.060;15.064;2023-12-14T16:13:20;4.90;1.00
4795;DHT22;2411;47.060;15.064;2023-12-14T16:15:47;4.80;1.00
4795;DHT22;2411;47.060;15.064;2023-12-14T16:18:15;4.60;1.00
4795;DHT22;2411;47.060;15.064;2023-12-14T16:20:42;4.50;1.00
4795;DHT22;2411;47.060;15.064;2023-12-14T16:23:10;4.40;1.00